Morning Charlotte — 3EMA2 — position and weather

sailwx.info

Track history (hours):
 
Tides and Currents Weather Stations Pressure Air Temp Water Temp Dewpoint Dewpoint Depression Visibility Wind Speed Wind Dir Waves Ship Positions

Morning Charlotte

Last reported at 2016-Apr-29 19:11 UTC. Time now 2016-May-05 12:15 UTC.
Position N 32°32' E 123°21'.

Length 200 m; draft 8.7 m.

Type: Cargo ship. MMSI: 357275000.

Date/timePositionNaut miles runAvg speedWind from/ knotsBaromVisibWave heightAir tempDewpointWater temp
2016-Apr-29 19:11N 32°32' E 123°21'1217.4
2016-Apr-29 18:28N 32°20' E 123°16'1516.7
2016-Apr-29 17:33N 32°06' E 123°10'1616.4
2016-Apr-29 16:33N 31°51' E 123°03'1616.0
2016-Apr-29 15:33N 31°36' E 122°56'1615.7
2016-Apr-29 14:32N 31°21' E 122°50'1514.9
2016-Apr-29 13:32N 31°06' E 122°46'1212.2
2016-Apr-29 12:33N 31°06' E 122°32'1110.6
2016-Apr-29 11:32N 31°06' E 122°19'2912.4
2016-Apr-29 09:15N 31°17' E 121°49'7 0.7
2016-Apr-28 23:11N 31°19' E 121°41'0 0.0
2016-Apr-28 22:29N 31°19' E 121°41'0 0.0
2016-Apr-28 19:20N 31°19' E 121°41'0 0.0
2016-Apr-28 18:33N 31°19' E 121°41'4 4.3
2016-Apr-28 17:33N 31°18' E 121°46'1110.6
2016-Apr-28 16:33N 31°15' E 121°58'10 9.8
2016-Apr-28 15:31N 31°12' E 122°09'  
2016-Apr-24 21:12N 38°17' E 121°50'6113.1
2016-Apr-24 16:31N 38°41' E 120°38'2015.9
2016-Apr-24 15:15N 38°46' E 120°13'10815.8
2016-Apr-24 08:22N 38°57' E 117°54'8 9.2
2016-Apr-24 07:33N 39°01' E 117°46'0 0.0
2016-Apr-24 04:08N 39°01' E 117°46'0 0.0
2016-Apr-24 02:32N 39°01' E 117°46'0 0.0
2016-Apr-24 01:32N 39°01' E 117°46'0 0.0
2016-Apr-24 00:32N 39°01' E 117°46'0 0.0
2016-Apr-23 23:32N 39°01' E 117°46'0 0.0
2016-Apr-23 22:20N 39°01' E 117°46'0 0.0
2016-Apr-23 21:14N 39°01' E 117°46'0 0.0
2016-Apr-23 20:32N 39°01' E 117°46'0 0.0
2016-Apr-23 19:32N 39°01' E 117°46'0 0.0
2016-Apr-23 18:26N 39°01' E 117°46'0 0.0
2016-Apr-23 17:32N 39°01' E 117°46'0 0.0
2016-Apr-23 16:32N 39°01' E 117°46'0 0.0
2016-Apr-23 15:32N 39°01' E 117°46'0 0.0
2016-Apr-23 14:32N 39°01' E 117°46'0 0.0
2016-Apr-23 13:32N 39°01' E 117°46'0 0.0
2016-Apr-23 12:32N 39°01' E 117°46'0 0.0
2016-Apr-23 11:32N 39°01' E 117°46'0 0.0
2016-Apr-23 10:32N 39°01' E 117°46'0 0.0
2016-Apr-23 09:20N 39°01' E 117°46'0 0.0
2016-Apr-23 06:26N 39°01' E 117°46'0 0.0
2016-Apr-23 04:20N 39°01' E 117°46'0 0.0
2016-Apr-22 23:32N 39°01' E 117°46'0 0.0
2016-Apr-22 22:33N 39°01' E 117°46'6 5.7
2016-Apr-22 21:33N 38°58' E 117°52'15711.7
2016-Apr-22 08:07N 38°31' E 121°10'5 9.5
2016-Apr-22 07:33N 38°29' E 121°16'3 2.6
2016-Apr-22 06:33N 38°27' E 121°19'8 8.4
2016-Apr-22 05:33N 38°24' E 121°28'1515.2
2016-Apr-22 04:33N 38°17' E 121°46'1717.0
2016-Apr-22 03:33N 38°13' E 122°07'1716.7
2016-Apr-22 02:33N 38°11' E 122°28'1616.5
2016-Apr-22 01:33N 38°03' E 122°46'1716.4
2016-Apr-22 00:30N 37°57' E 123°06'7116.1
2016-Apr-21 20:05N 37°00' E 124°00'  
Track history (hours):
 
Tides and Currents Weather Stations Pressure Air Temp Water Temp Dewpoint Dewpoint Depression Visibility Wind Speed Wind Dir Waves Ship Positions

Morning Charlotte

Last reported at 2016-Apr-29 19:11 UTC. Time now 2016-May-05 12:15 UTC.
Position N 32°32' E 123°21'.

Length 200 m; draft 8.7 m.

Type: Cargo ship. MMSI: 357275000.

Date/timePositionNaut miles runAvg speedWind from/ knotsBaromVisibWave heightAir tempDewpointWater temp
2016-Apr-29 19:11N 32°32' E 123°21'1217.4
2016-Apr-29 18:28N 32°20' E 123°16'1516.7
2016-Apr-29 17:33N 32°06' E 123°10'1616.4
2016-Apr-29 16:33N 31°51' E 123°03'1616.0
2016-Apr-29 15:33N 31°36' E 122°56'1615.7
2016-Apr-29 14:32N 31°21' E 122°50'1514.9
2016-Apr-29 13:32N 31°06' E 122°46'1212.2
2016-Apr-29 12:33N 31°06' E 122°32'1110.6
2016-Apr-29 11:32N 31°06' E 122°19'2912.4
2016-Apr-29 09:15N 31°17' E 121°49'7 0.7
2016-Apr-28 23:11N 31°19' E 121°41'0 0.0
2016-Apr-28 22:29N 31°19' E 121°41'0 0.0
2016-Apr-28 19:20N 31°19' E 121°41'0 0.0
2016-Apr-28 18:33N 31°19' E 121°41'4 4.3
2016-Apr-28 17:33N 31°18' E 121°46'1110.6
2016-Apr-28 16:33N 31°15' E 121°58'10 9.8
2016-Apr-28 15:31N 31°12' E 122°09'  
2016-Apr-24 21:12N 38°17' E 121°50'6113.1
2016-Apr-24 16:31N 38°41' E 120°38'2015.9
2016-Apr-24 15:15N 38°46' E 120°13'10815.8
2016-Apr-24 08:22N 38°57' E 117°54'8 9.2
2016-Apr-24 07:33N 39°01' E 117°46'0 0.0
2016-Apr-24 04:08N 39°01' E 117°46'0 0.0
2016-Apr-24 02:32N 39°01' E 117°46'0 0.0
2016-Apr-24 01:32N 39°01' E 117°46'0 0.0
2016-Apr-24 00:32N 39°01' E 117°46'0 0.0
2016-Apr-23 23:32N 39°01' E 117°46'0 0.0
2016-Apr-23 22:20N 39°01' E 117°46'0 0.0
2016-Apr-23 21:14N 39°01' E 117°46'0 0.0
2016-Apr-23 20:32N 39°01' E 117°46'0 0.0
2016-Apr-23 19:32N 39°01' E 117°46'0 0.0
2016-Apr-23 18:26N 39°01' E 117°46'0 0.0
2016-Apr-23 17:32N 39°01' E 117°46'0 0.0
2016-Apr-23 16:32N 39°01' E 117°46'0 0.0
2016-Apr-23 15:32N 39°01' E 117°46'0 0.0
2016-Apr-23 14:32N 39°01' E 117°46'0 0.0
2016-Apr-23 13:32N 39°01' E 117°46'0 0.0
2016-Apr-23 12:32N 39°01' E 117°46'0 0.0
2016-Apr-23 11:32N 39°01' E 117°46'0 0.0
2016-Apr-23 10:32N 39°01' E 117°46'0 0.0
2016-Apr-23 09:20N 39°01' E 117°46'0 0.0
2016-Apr-23 06:26N 39°01' E 117°46'0 0.0
2016-Apr-23 04:20N 39°01' E 117°46'0 0.0
2016-Apr-22 23:32N 39°01' E 117°46'0 0.0
2016-Apr-22 22:33N 39°01' E 117°46'6 5.7
2016-Apr-22 21:33N 38°58' E 117°52'15711.7
2016-Apr-22 08:07N 38°31' E 121°10'5 9.5
2016-Apr-22 07:33N 38°29' E 121°16'3 2.6
2016-Apr-22 06:33N 38°27' E 121°19'8 8.4
2016-Apr-22 05:33N 38°24' E 121°28'1515.2
2016-Apr-22 04:33N 38°17' E 121°46'1717.0
2016-Apr-22 03:33N 38°13' E 122°07'1716.7
2016-Apr-22 02:33N 38°11' E 122°28'1616.5
2016-Apr-22 01:33N 38°03' E 122°46'1716.4
2016-Apr-22 00:30N 37°57' E 123°06'7116.1
2016-Apr-21 20:05N 37°00' E 124°00'  

Dump ship's entire track history